VKG001 LEPA-ENVA
Flight info
| Callsign | VKG001 |
|---|---|
| Flight time | N/A |
| Altitude | 32000 |
| Route | GALAT N861 OLOXO DCT OKABI DCT TOU DCT ADABI DCT BOKNO UN858 VANAD UN874 PIWIZ/N0450F340 UN874 BAMES UT191 PODEM UN873 BAZOS DCT BELDI/N0449F330 DCT VICOT DCT GREFI DCT VEVOD |
| Aircraft | A321/M-SDE3FGHIRWY/LB1 |
Departure
| Time | 2026-05-04 09:57 |
|---|---|
| Airport | Palma de Mallorca Airport (LEPA) |
Arrival
| Time | N/A |
|---|---|
| Airport | Trondheim Airport, Værnes (ENVA) |
| Time | Latitude | Longitude | Altitude | Speed | Heading |
|---|---|---|---|---|---|
| 2026-05-04 09:42 | 39.55069 | 2.73583 | 38 ft | 0 kts | 166° |
| 2026-05-04 09:51 | 39.55104 | 2.73537 | 35 ft | 0 kts | 64° |
| 2026-05-04 09:52 | 39.55104 | 2.73538 | 35 ft | 1 kts | 64° |
| 2026-05-04 09:53 | 39.55128 | 2.73588 | 36 ft | 12 kts | 58° |
| 2026-05-04 09:53 | 39.55171 | 2.73681 | 38 ft | 11 kts | 66° |
| 2026-05-04 09:53 | 39.55166 | 2.73770 | 38 ft | 9 kts | 89° |
| 2026-05-04 09:53 | 39.55203 | 2.73816 | 38 ft | 9 kts | 359° |
| 2026-05-04 09:54 | 39.55277 | 2.73768 | 37 ft | 15 kts | 326° |
| 2026-05-04 09:54 | 39.55384 | 2.73688 | 38 ft | 20 kts | 329° |
| 2026-05-04 09:54 | 39.55519 | 2.73582 | 38 ft | 23 kts | 328° |
| 2026-05-04 09:54 | 39.55631 | 2.73513 | 38 ft | 16 kts | 358° |
| 2026-05-04 09:55 | 39.55702 | 2.73601 | 38 ft | 14 kts | 60° |
| 2026-05-04 09:55 | 39.55748 | 2.73701 | 38 ft | 13 kts | 58° |
| 2026-05-04 09:55 | 39.55810 | 2.73825 | 38 ft | 20 kts | 57° |
| 2026-05-04 09:55 | 39.55893 | 2.74005 | 36 ft | 27 kts | 59° |
| 2026-05-04 09:56 | 39.56006 | 2.74231 | 38 ft | 32 kts | 45° |
| 2026-05-04 09:56 | 39.56168 | 2.74343 | 38 ft | 18 kts | 7° |
| 2026-05-04 09:56 | 39.56212 | 2.74232 | 36 ft | 21 kts | 239° |
| 2026-05-04 09:56 | 39.56098 | 2.73992 | 38 ft | 55 kts | 238° |
| 2026-05-04 09:57 | 39.55782 | 2.73320 | 38 ft | 116 kts | 238° |
| 2026-05-04 09:57 | 39.55278 | 2.72256 | 42 ft | 162 kts | 238° |
| 2026-05-04 09:57 | 39.54639 | 2.70987 | 505 ft | 169 kts | 237° |
| 2026-05-04 09:57 | 39.54002 | 2.69710 | 1181 ft | 168 kts | 236° |
| 2026-05-04 09:58 | 39.53365 | 2.68436 | 1847 ft | 168 kts | 235° |
| 2026-05-04 09:58 | 39.52705 | 2.67121 | 2107 ft | 184 kts | 236° |
| 2026-05-04 09:58 | 39.51968 | 2.65657 | 2234 ft | 204 kts | 236° |
| 2026-05-04 10:00 | 39.46316 | 2.54533 | 6017 ft | 215 kts | 236° |
| 2026-05-04 10:00 | 39.45490 | 2.52912 | 6467 ft | 217 kts | 237° |
| 2026-05-04 10:02 | 39.53265 | 2.41187 | 9459 ft | 290 kts | 320° |
| 2026-05-04 10:04 | 39.67391 | 2.30280 | 11047 ft | 389 kts | 327° |
| 2026-05-04 10:04 | 39.69748 | 2.28527 | 11500 ft | 393 kts | 327° |
| 2026-05-04 10:04 | 39.72129 | 2.26753 | 11984 ft | 395 kts | 327° |
| 2026-05-04 10:04 | 39.74491 | 2.24988 | 12470 ft | 398 kts | 326° |
| 2026-05-04 10:05 | 39.76926 | 2.23162 | 12952 ft | 400 kts | 326° |
| 2026-05-04 10:05 | 39.79313 | 2.21369 | 13456 ft | 403 kts | 326° |
| 2026-05-04 10:05 | 39.81747 | 2.19537 | 13895 ft | 406 kts | 326° |
| 2026-05-04 10:05 | 39.84198 | 2.17691 | 14308 ft | 408 kts | 326° |
| 2026-05-04 10:06 | 39.86662 | 2.15839 | 14734 ft | 410 kts | 326° |
| 2026-05-04 10:06 | 39.89135 | 2.13982 | 15153 ft | 412 kts | 326° |
| 2026-05-04 10:06 | 39.91621 | 2.12116 | 15573 ft | 413 kts | 325° |
| 2026-05-04 10:08 | 40.06770 | 2.00642 | 17950 ft | 427 kts | 325° |
| 2026-05-04 10:08 | 40.09348 | 1.98687 | 18326 ft | 429 kts | 324° |
| 2026-05-04 10:08 | 40.11944 | 1.96721 | 18660 ft | 432 kts | 324° |
| 2026-05-04 10:08 | 40.14622 | 1.94904 | 18981 ft | 439 kts | 332° |
| 2026-05-04 10:09 | 40.17441 | 1.93671 | 19295 ft | 447 kts | 341° |
| 2026-05-04 10:09 | 40.20524 | 1.92903 | 19610 ft | 452 kts | 345° |
| 2026-05-04 10:09 | 40.23631 | 1.92188 | 19925 ft | 454 kts | 345° |
| 2026-05-04 10:09 | 40.26749 | 1.91462 | 20237 ft | 457 kts | 345° |
| 2026-05-04 10:10 | 40.29890 | 1.90731 | 20557 ft | 460 kts | 344° |
| 2026-05-04 10:10 | 40.33058 | 1.89995 | 20809 ft | 464 kts | 344° |
| 2026-05-04 10:10 | 40.36242 | 1.89255 | 21093 ft | 466 kts | 344° |
| 2026-05-04 10:10 | 40.39446 | 1.88507 | 21399 ft | 468 kts | 344° |
| 2026-05-04 10:11 | 40.42621 | 1.87766 | 21698 ft | 470 kts | 344° |
| 2026-05-04 10:11 | 40.45893 | 1.87000 | 22005 ft | 472 kts | 344° |
| 2026-05-04 10:11 | 40.49092 | 1.86249 | 22294 ft | 475 kts | 344° |
| 2026-05-04 10:11 | 40.52349 | 1.85486 | 22582 ft | 477 kts | 344° |
| 2026-05-04 10:12 | 40.55622 | 1.84720 | 22864 ft | 479 kts | 344° |
| 2026-05-04 10:12 | 40.58913 | 1.83952 | 23146 ft | 481 kts | 344° |
| 2026-05-04 10:12 | 40.62213 | 1.83179 | 23424 ft | 483 kts | 344° |
| 2026-05-04 10:12 | 40.65529 | 1.82398 | 23671 ft | 485 kts | 344° |
| 2026-05-04 10:13 | 40.68838 | 1.81620 | 23894 ft | 487 kts | 344° |
| 2026-05-04 10:13 | 40.72180 | 1.80835 | 24137 ft | 488 kts | 344° |
| 2026-05-04 10:13 | 40.75532 | 1.80047 | 24370 ft | 490 kts | 344° |
| 2026-05-04 10:13 | 40.78892 | 1.79251 | 24603 ft | 492 kts | 344° |
| 2026-05-04 10:14 | 40.82260 | 1.78455 | 24903 ft | 492 kts | 344° |
| 2026-05-04 10:14 | 40.85634 | 1.77658 | 25244 ft | 491 kts | 343° |
| 2026-05-04 10:16 | 41.09150 | 1.72220 | 27423 ft | 491 kts | 346° |
| 2026-05-04 10:16 | 41.12543 | 1.71674 | 27755 ft | 492 kts | 347° |
| 2026-05-04 10:16 | 41.15957 | 1.71205 | 28055 ft | 492 kts | 348° |
| 2026-05-04 10:16 | 41.19365 | 1.70764 | 28354 ft | 492 kts | 347° |
| 2026-05-04 10:17 | 41.22771 | 1.70315 | 28657 ft | 491 kts | 347° |
| 2026-05-04 10:17 | 41.26172 | 1.69843 | 28961 ft | 491 kts | 347° |
| 2026-05-04 10:19 | 41.49707 | 1.66145 | 30944 ft | 485 kts | 346° |
| 2026-05-04 10:19 | 41.53062 | 1.65628 | 31190 ft | 485 kts | 346° |
| 2026-05-04 10:19 | 41.56404 | 1.65106 | 31457 ft | 484 kts | 346° |
| 2026-05-04 10:19 | 41.59746 | 1.64578 | 31720 ft | 483 kts | 346° |
| 2026-05-04 10:20 | 41.63078 | 1.64054 | 31963 ft | 483 kts | 346° |
| 2026-05-04 10:20 | 41.66420 | 1.63529 | 32218 ft | 482 kts | 346° |
| 2026-05-04 10:20 | 41.69755 | 1.63001 | 32453 ft | 482 kts | 346° |
| 2026-05-04 10:20 | 41.73079 | 1.62469 | 32688 ft | 482 kts | 346° |
| 2026-05-04 10:21 | 41.76409 | 1.61939 | 32946 ft | 481 kts | 346° |
| 2026-05-04 10:21 | 41.79735 | 1.61414 | 33205 ft | 481 kts | 346° |
| 2026-05-04 10:21 | 41.83056 | 1.60894 | 33423 ft | 481 kts | 346° |
| 2026-05-04 10:21 | 41.86379 | 1.60377 | 33636 ft | 480 kts | 346° |
| 2026-05-04 10:22 | 41.93026 | 1.59335 | 33966 ft | 482 kts | 346° |
| 2026-05-04 10:22 | 41.96368 | 1.58804 | 33982 ft | 485 kts | 346° |
| 2026-05-04 10:23 | 42.03078 | 1.57736 | 33977 ft | 486 kts | 346° |
| 2026-05-04 10:25 | 42.29910 | 1.53468 | 34010 ft | 485 kts | 346° |
| 2026-05-04 10:25 | 42.36613 | 1.52396 | 34043 ft | 484 kts | 346° |
| 2026-05-04 10:26 | 42.43308 | 1.51320 | 34022 ft | 484 kts | 346° |
| 2026-05-04 10:26 | 42.49951 | 1.50248 | 34006 ft | 483 kts | 346° |
| 2026-05-04 10:27 | 42.56628 | 1.49174 | 33986 ft | 483 kts | 346° |
| 2026-05-04 10:27 | 42.63309 | 1.48093 | 34003 ft | 483 kts | 346° |
| 2026-05-04 10:28 | 42.69993 | 1.47016 | 33975 ft | 483 kts | 346° |
| 2026-05-04 10:28 | 42.76674 | 1.45936 | 33968 ft | 483 kts | 346° |
| 2026-05-04 10:29 | 42.83349 | 1.44856 | 33968 ft | 483 kts | 346° |
| 2026-05-04 10:29 | 42.90029 | 1.43780 | 33954 ft | 483 kts | 346° |
| 2026-05-04 10:30 | 42.96699 | 1.42709 | 33942 ft | 482 kts | 346° |
| 2026-05-04 10:30 | 43.02287 | 1.41803 | 33985 ft | 484 kts | 347° |
| 2026-05-04 10:31 | 43.08935 | 1.40717 | 33974 ft | 484 kts | 346° |